Time;durP1;ratioP1;P1;durP2;ratioP2;P2;SDS_P1;SDS_P2;PMS_P1;PMS_P2;Temp;Humidity;BMP_temperature;BMP_pressure;BME280_temperature;BME280_humidity;BME280_pressure;Samples;Min_cycle;Max_cycle;Signal;HPM_P1;HPM_P2
2023/08/27 00:01:27;;;;;;;7.82;7.03;;;13.50;99.90;;;;;;5070118;28;20488;-86
2023/08/27 00:03:53;;;;;;;7.88;6.55;;;13.40;99.90;;;;;;5051984;28;20040;-85
2023/08/27 00:06:19;;;;;;;8.35;7.50;;;13.40;99.90;;;;;;5041736;28;20036;-86
2023/08/27 00:08:44;;;;;;;9.07;8.15;;;13.30;99.90;;;;;;5017731;28;20028;-86
2023/08/27 00:11:10;;;;;;;8.40;6.63;;;13.30;99.90;;;;;;5036972;28;20460;-86
2023/08/27 00:13:36;;;;;;;8.32;7.50;;;13.30;99.90;;;;;;5053169;28;20114;-86
2023/08/27 00:16:04;;;;;;;8.05;7.25;;;13.30;99.90;;;;;;5045348;28;20114;-86
2023/08/27 00:18:30;;;;;;;7.53;6.82;;;13.30;99.90;;;;;;5027009;28;20102;-86
2023/08/27 00:20:56;;;;;;;7.95;7.15;;;13.30;99.90;;;;;;5069332;28;20491;-86
2023/08/27 00:23:22;;;;;;;8.02;7.00;;;13.30;99.90;;;;;;5046122;28;20048;-86
2023/08/27 00:25:48;;;;;;;8.13;7.32;;;13.30;99.90;;;;;;5039903;28;20040;-86
2023/08/27 00:28:14;;;;;;;7.85;7.10;;;13.20;99.90;;;;;;5043459;28;20045;-86
2023/08/27 00:30:41;;;;;;;13.80;8.13;;;13.30;99.90;;;;;;5045660;28;20051;-86
2023/08/27 00:33:07;;;;;;;8.60;7.43;;;13.30;99.90;;;;;;5059906;28;20444;-86
2023/08/27 00:35:32;;;;;;;7.28;6.38;;;13.30;99.90;;;;;;5059360;28;20120;-86
2023/08/27 00:37:58;;;;;;;7.60;6.85;;;13.30;99.90;;;;;;5062333;28;20111;-86
2023/08/27 00:40:28;;;;;;;7.57;6.38;;;13.30;99.90;;;;;;5044861;28;20459;-86
2023/08/27 00:42:55;;;;;;;8.10;7.10;;;13.40;99.90;;;;;;5056889;28;20492;-86
2023/08/27 00:45:21;;;;;;;7.32;6.65;;;13.40;99.90;;;;;;5063038;28;20503;-86
2023/08/27 00:47:47;;;;;;;8.65;7.70;;;13.30;99.90;;;;;;5059079;28;20033;-86
2023/08/27 00:50:14;;;;;;;8.85;6.80;;;13.30;99.90;;;;;;5047707;28;20044;-86
2023/08/27 00:52:42;;;;;;;7.47;6.25;;;13.20;99.90;;;;;;5043737;28;20033;-86
2023/08/27 00:55:08;;;;;;;8.60;6.72;;;13.20;99.90;;;;;;5039077;28;20048;-86
2023/08/27 00:57:36;;;;;;;8.35;6.90;;;13.30;99.90;;;;;;5043567;28;20079;-86
2023/08/27 01:00:03;;;;;;;7.70;6.95;;;13.20;99.90;;;;;;5053009;28;20036;-86
2023/08/27 01:02:28;;;;;;;7.82;7.10;;;13.10;99.90;;;;;;5055809;28;20036;-86
2023/08/27 01:04:54;;;;;;;10.82;7.57;;;13.10;99.90;;;;;;5047243;28;20052;-86
2023/08/27 01:07:31;;;;;;;8.02;7.07;;;13.20;99.90;;;;;;5057699;28;20075;-86
2023/08/27 01:10:26;;;;;;;8.07;7.28;;;13.10;99.90;;;;;;5060172;28;20053;-86
2023/08/27 01:13:04;;;;;;;9.90;7.50;;;13.20;99.90;;;;;;5031816;28;20080;-86
2023/08/27 01:15:30;;;;;;;8.43;7.65;;;13.20;99.90;;;;;;5056875;28;20041;-85
2023/08/27 01:17:59;;;;;;;10.48;7.95;;;13.30;99.90;;;;;;5025319;28;20044;-85
2023/08/27 01:20:25;;;;;;;6.63;6.03;;;13.30;99.90;;;;;;5061378;28;20098;-86
2023/08/27 01:22:51;;;;;;;5.68;5.18;;;13.30;99.90;;;;;;5046285;28;20080;-85
2023/08/27 01:25:20;;;;;;;5.95;5.10;;;13.20;99.90;;;;;;5056986;28;20079;-86
2023/08/27 01:28:14;;;;;;;7.00;6.40;;;13.30;99.90;;;;;;5040112;28;20657;-86
2023/08/27 01:31:11;;;;;;;7.15;6.47;;;13.20;99.90;;;;;;5063112;28;20052;-85
2023/08/27 01:33:38;;;;;;;7.15;6.45;;;13.20;99.90;;;;;;5057327;28;20060;-85
2023/08/27 01:36:05;;;;;;;8.15;6.95;;;13.20;99.90;;;;;;5061457;28;20099;-85
2023/08/27 01:38:31;;;;;;;8.43;7.35;;;13.20;99.90;;;;;;5047723;28;20488;-84
2023/08/27 01:40:57;;;;;;;8.43;7.65;;;13.20;99.90;;;;;;5065482;28;20129;-85
2023/08/27 01:43:23;;;;;;;8.93;8.07;;;13.20;99.90;;;;;;5044910;28;20054;-86
2023/08/27 01:45:48;;;;;;;9.48;8.00;;;13.20;99.90;;;;;;5063460;28;20043;-85
2023/08/27 01:48:14;;;;;;;9.02;8.13;;;13.30;99.90;;;;;;5058973;28;20075;-85
2023/08/27 01:50:40;;;;;;;9.18;8.27;;;13.30;99.90;;;;;;5061806;28;20040;-85
2023/08/27 01:53:06;;;;;;;10.52;9.52;;;13.30;99.90;;;;;;5041174;28;20044;-86
2023/08/27 01:55:32;;;;;;;10.55;9.55;;;13.40;99.90;;;;;;5066297;28;20398;-85
2023/08/27 01:57:57;;;;;;;10.50;8.90;;;13.50;99.90;;;;;;5053630;28;20493;-86
2023/08/27 02:00:23;;;;;;;10.93;9.82;;;13.50;99.90;;;;;;5055159;28;20051;-85
2023/08/27 02:02:50;;;;;;;10.30;9.30;;;13.60;99.90;;;;;;5048861;28;20063;-85
2023/08/27 02:05:15;;;;;;;10.73;9.63;;;13.60;99.90;;;;;;5060618;28;20106;-85
2023/08/27 02:07:41;;;;;;;11.18;9.48;;;13.60;99.90;;;;;;5036584;28;20053;-85
2023/08/27 02:10:08;;;;;;;11.07;9.13;;;13.60;99.90;;;;;;5038473;28;20049;-85
2023/08/27 02:12:34;;;;;;;9.45;8.55;;;13.60;99.90;;;;;;5054716;28;20404;-86
2023/08/27 02:15:02;;;;;;;10.60;9.07;;;13.60;99.90;;;;;;5053086;28;20044;-86
2023/08/27 02:17:28;;;;;;;10.45;9.45;;;13.70;99.90;;;;;;5036359;28;20116;-86
2023/08/27 02:19:54;;;;;;;8.43;7.68;;;13.70;99.90;;;;;;5036366;28;20040;-86
2023/08/27 02:22:20;;;;;;;9.30;8.32;;;13.70;99.90;;;;;;5064929;28;20041;-86
2023/08/27 02:24:45;;;;;;;10.02;8.63;;;13.60;99.90;;;;;;5051566;28;20040;-86
2023/08/27 02:27:11;;;;;;;10.65;9.35;;;13.60;99.90;;;;;;5037769;28;20128;-86
2023/08/27 02:29:37;;;;;;;11.05;9.80;;;13.60;99.90;;;;;;5037904;28;20059;-86
2023/08/27 02:32:03;;;;;;;10.68;9.48;;;13.50;99.90;;;;;;5054597;28;20040;-86
2023/08/27 02:34:28;;;;;;;11.68;9.48;;;13.50;99.90;;;;;;5019708;28;20041;-86
2023/08/27 02:36:54;;;;;;;9.07;7.88;;;13.50;99.90;;;;;;5039276;28;20040;-86
2023/08/27 02:39:20;;;;;;;9.65;8.27;;;13.40;99.90;;;;;;5019075;28;20347;-86
2023/08/27 02:41:46;;;;;;;10.25;9.05;;;13.40;99.90;;;;;;5035598;28;20040;-86
2023/08/27 02:44:12;;;;;;;12.05;8.82;;;13.40;99.90;;;;;;5070661;28;20040;-86
2023/08/27 02:46:37;;;;;;;10.18;9.18;;;13.40;99.90;;;;;;5055699;28;20083;-85
2023/08/27 02:49:03;;;;;;;12.45;8.68;;;13.40;99.90;;;;;;5062401;28;20090;-86
2023/08/27 02:51:29;;;;;;;10.75;8.70;;;13.30;99.90;;;;;;5036128;28;20438;-86
2023/08/27 02:53:55;;;;;;;9.77;8.77;;;13.30;99.90;;;;;;5048665;28;20033;-86
2023/08/27 02:56:22;;;;;;;9.45;8.52;;;13.20;99.90;;;;;;5052342;28;20558;-86
2023/08/27 02:58:49;;;;;;;10.77;9.68;;;13.20;99.90;;;;;;5019413;28;20056;-85
2023/08/27 03:01:20;;;;;;;14.80;9.35;;;13.20;99.90;;;;;;5056416;28;20041;-85
2023/08/27 03:03:49;;;;;;;12.60;9.80;;;13.20;99.90;;;;;;5052479;28;20213;-85
2023/08/27 03:06:15;;;;;;;9.98;8.98;;;13.20;99.90;;;;;;5044209;28;20042;-86
2023/08/27 03:08:40;;;;;;;11.63;9.40;;;13.10;99.90;;;;;;5048928;28;20127;-86
2023/08/27 03:11:07;;;;;;;11.18;10.02;;;13.10;99.90;;;;;;5038355;28;20093;-84
2023/08/27 03:13:32;;;;;;;10.32;9.25;;;13.10;99.90;;;;;;5037072;28;20051;-85
2023/08/27 03:15:58;;;;;;;11.00;9.90;;;13.10;99.90;;;;;;5049220;28;20065;-86
2023/08/27 03:18:24;;;;;;;12.10;10.75;;;13.10;99.90;;;;;;5051920;28;20048;-85
2023/08/27 03:20:51;;;;;;;9.25;8.15;;;13.10;99.90;;;;;;5035284;28;20036;-85
2023/08/27 03:23:18;;;;;;;11.68;9.68;;;13.10;99.90;;;;;;5044611;28;20049;-87
2023/08/27 03:25:43;;;;;;;11.00;9.77;;;13.20;99.90;;;;;;5055087;28;20036;-85
2023/08/27 03:28:09;;;;;;;11.02;7.70;;;13.10;99.90;;;;;;5048742;28;20118;-85
2023/08/27 03:30:35;;;;;;;13.82;10.45;;;13.10;99.90;;;;;;5041485;28;20053;-86
2023/08/27 03:33:01;;;;;;;14.57;10.15;;;13.10;99.90;;;;;;5034695;28;20056;-85
2023/08/27 03:35:27;;;;;;;10.98;9.80;;;13.10;99.90;;;;;;5051694;28;20049;-86
2023/08/27 03:37:52;;;;;;;11.63;10.00;;;13.10;99.90;;;;;;5037284;28;20396;-85
2023/08/27 03:40:20;;;;;;;12.57;11.32;;;13.10;99.90;;;;;;5057670;28;20040;-85
2023/08/27 03:42:46;;;;;;;10.80;9.80;;;13.10;99.90;;;;;;5062981;28;20183;-85
2023/08/27 03:45:11;;;;;;;13.20;10.32;;;13.10;99.90;;;;;;5036838;28;20127;-85
2023/08/27 03:47:37;;;;;;;13.48;11.32;;;13.10;99.90;;;;;;5037152;28;20385;-85
2023/08/27 03:50:04;;;;;;;11.25;10.05;;;13.20;99.90;;;;;;5052374;28;20037;-85
2023/08/27 03:52:30;;;;;;;11.00;9.65;;;13.20;99.90;;;;;;5051801;28;20392;-85
2023/08/27 03:54:56;;;;;;;12.45;11.15;;;13.20;99.90;;;;;;5051169;28;20400;-85
2023/08/27 03:57:22;;;;;;;12.82;10.50;;;13.20;99.90;;;;;;5038507;28;20048;-85
2023/08/27 03:59:47;;;;;;;11.25;10.05;;;13.20;99.90;;;;;;5034765;28;20159;-85
2023/08/27 04:02:15;;;;;;;13.40;10.55;;;13.20;99.90;;;;;;5034716;28;20049;-85
2023/08/27 04:04:40;;;;;;;10.85;9.75;;;13.20;99.90;;;;;;5052344;28;20049;-85
2023/08/27 04:07:06;;;;;;;12.88;10.68;;;13.20;99.90;;;;;;5039162;28;20047;-85
2023/08/27 04:09:33;;;;;;;11.80;10.60;;;13.30;99.90;;;;;;5044511;28;20125;-85
2023/08/27 04:11:59;;;;;;;12.50;9.95;;;13.30;99.90;;;;;;5051285;28;20133;-86
2023/08/27 04:14:25;;;;;;;11.32;10.23;;;13.30;99.90;;;;;;5041669;28;20496;-85
2023/08/27 04:16:51;;;;;;;13.50;10.77;;;13.30;99.90;;;;;;5054353;28;20060;-85
2023/08/27 04:19:16;;;;;;;11.68;10.48;;;13.30;99.90;;;;;;5066998;28;20045;-85
2023/08/27 04:21:42;;;;;;;11.63;10.43;;;13.30;99.90;;;;;;5034802;28;20498;-85
2023/08/27 04:24:08;;;;;;;11.32;9.88;;;13.30;99.90;;;;;;5034114;28;20124;-86
2023/08/27 04:26:34;;;;;;;13.20;10.82;;;13.30;99.90;;;;;;5054013;28;20472;-86
2023/08/27 04:29:00;;;;;;;12.15;10.55;;;13.30;99.90;;;;;;5050277;28;20100;-86
2023/08/27 04:31:25;;;;;;;12.55;11.00;;;13.30;99.90;;;;;;5051168;28;20669;-86
2023/08/27 04:33:51;;;;;;;12.10;10.93;;;13.30;99.90;;;;;;5034651;28;20551;-86
2023/08/27 04:36:17;;;;;;;14.52;11.70;;;13.30;99.90;;;;;;5051923;28;20046;-86
2023/08/27 04:38:43;;;;;;;12.55;11.25;;;13.30;99.90;;;;;;5034243;28;20041;-86
2023/08/27 04:41:08;;;;;;;13.35;11.43;;;13.30;99.90;;;;;;5018164;28;20094;-86
2023/08/27 04:43:34;;;;;;;12.65;10.65;;;13.30;99.90;;;;;;5058942;28;20106;-85
2023/08/27 04:46:00;;;;;;;14.23;11.05;;;13.30;99.90;;;;;;5050481;28;20044;-85
2023/08/27 04:48:26;;;;;;;11.80;10.60;;;13.20;99.90;;;;;;5058928;28;20047;-85
2023/08/27 04:50:52;;;;;;;13.75;11.10;;;13.20;99.90;;;;;;5056574;28;20476;-85
2023/08/27 04:53:19;;;;;;;12.93;11.57;;;13.10;99.90;;;;;;5050231;28;20036;-85
2023/08/27 04:55:45;;;;;;;13.68;10.93;;;13.10;99.90;;;;;;5046117;28;20366;-85
2023/08/27 04:58:12;;;;;;;11.85;10.63;;;13.10;99.90;;;;;;5040142;28;20101;-85
2023/08/27 05:00:37;;;;;;;12.55;11.23;;;13.10;99.90;;;;;;5045110;28;20585;-86
2023/08/27 05:03:03;;;;;;;11.35;10.32;;;13.10;99.90;;;;;;5024255;28;20052;-86
2023/08/27 05:05:29;;;;;;;12.30;11.10;;;13.10;99.90;;;;;;5040670;28;20044;-85
2023/08/27 05:07:55;;;;;;;11.23;10.13;;;13.20;99.90;;;;;;5040759;28;20374;-86
2023/08/27 05:10:21;;;;;;;11.07;9.90;;;13.20;99.90;;;;;;5028080;28;20041;-86
2023/08/27 05:12:47;;;;;;;11.77;10.57;;;13.20;99.90;;;;;;5040438;28;20145;-86
2023/08/27 05:15:12;;;;;;;12.18;10.27;;;13.20;99.90;;;;;;5040185;28;20108;-85
2023/08/27 05:17:38;;;;;;;10.90;8.95;;;13.30;99.90;;;;;;5040187;28;20155;-85
2023/08/27 05:20:07;;;;;;;11.77;10.57;;;13.30;99.90;;;;;;5039794;28;20033;-86
2023/08/27 05:22:32;;;;;;;10.32;9.32;;;13.30;99.90;;;;;;5056983;28;20041;-86
2023/08/27 05:24:58;;;;;;;14.20;10.00;;;13.20;99.90;;;;;;5040272;28;20047;-85
2023/08/27 05:27:25;;;;;;;11.95;10.50;;;13.30;99.90;;;;;;5040342;28;20055;-85
2023/08/27 05:29:51;;;;;;;12.80;10.23;;;13.20;99.90;;;;;;5040336;28;20130;-84
2023/08/27 05:32:16;;;;;;;11.10;9.93;;;13.20;99.90;;;;;;5040127;28;20497;-85
2023/08/27 05:34:42;;;;;;;12.07;10.57;;;13.30;99.90;;;;;;5056946;28;20047;-84
2023/08/27 05:37:08;;;;;;;12.30;11.00;;;13.30;99.90;;;;;;5040220;28;20048;-84
2023/08/27 05:39:34;;;;;;;11.77;10.65;;;13.40;99.90;;;;;;5039936;28;20515;-84
2023/08/27 05:42:00;;;;;;;11.00;10.00;;;13.50;99.90;;;;;;5039747;28;20055;-85
2023/08/27 05:44:26;;;;;;;11.93;10.63;;;13.50;99.90;;;;;;5043344;28;20127;-84
2023/08/27 05:46:51;;;;;;;11.25;10.18;;;13.60;99.90;;;;;;5041581;28;20041;-83
2023/08/27 05:49:17;;;;;;;11.75;10.52;;;13.70;99.90;;;;;;5052239;28;20357;-85
2023/08/27 05:51:43;;;;;;;12.30;11.07;;;13.80;99.90;;;;;;5029081;28;20503;-84
2023/08/27 05:54:08;;;;;;;12.52;11.23;;;13.80;99.90;;;;;;5057900;28;20032;-85
2023/08/27 05:56:34;;;;;;;14.35;11.95;;;13.90;99.90;;;;;;5056714;28;20399;-84
2023/08/27 05:59:00;;;;;;;13.48;11.68;;;13.90;99.90;;;;;;5022018;28;20033;-83
2023/08/27 06:01:26;;;;;;;13.60;11.98;;;13.90;99.90;;;;;;5053106;28;20404;-84
2023/08/27 06:03:51;;;;;;;14.73;12.10;;;14.00;99.90;;;;;;5036509;28;20045;-84
2023/08/27 06:06:17;;;;;;;14.80;12.18;;;14.10;99.90;;;;;;5068475;28;20056;-84
2023/08/27 06:08:43;;;;;;;13.07;11.43;;;14.10;99.90;;;;;;5071498;28;20040;-84
2023/08/27 06:11:09;;;;;;;12.73;11.23;;;14.10;99.90;;;;;;5036341;28;20127;-85
2023/08/27 06:13:34;;;;;;;13.23;11.82;;;14.20;99.90;;;;;;5036570;28;20045;-83
2023/08/27 06:16:00;;;;;;;12.88;11.38;;;14.20;99.90;;;;;;5026010;28;20129;-86
2023/08/27 06:18:26;;;;;;;13.18;11.65;;;14.20;99.90;;;;;;5037668;28;20049;-85
2023/08/27 06:20:52;;;;;;;14.88;11.73;;;14.20;99.90;;;;;;5036714;28;20044;-84
2023/08/27 06:23:18;;;;;;;13.95;12.07;;;14.20;99.90;;;;;;5055093;28;20041;-86
2023/08/27 06:25:44;;;;;;;13.38;11.63;;;14.20;99.90;;;;;;5052962;28;20510;-85
2023/08/27 06:28:10;;;;;;;15.65;12.45;;;14.20;99.90;;;;;;5037232;28;20037;-85
2023/08/27 06:30:40;;;;;;;11.98;10.75;;;14.20;99.90;;;;;;5053311;28;20057;-84
2023/08/27 06:33:08;;;;;;;12.77;11.18;;;14.10;99.90;;;;;;5036490;28;20396;-85
2023/08/27 06:35:35;;;;;;;12.65;11.13;;;14.10;99.90;;;;;;5037024;28;20047;-85
2023/08/27 06:38:01;;;;;;;16.00;11.60;;;14.10;99.90;;;;;;5037535;28;20052;-85
2023/08/27 06:40:28;;;;;;;13.45;11.63;;;14.10;99.90;;;;;;5037018;28;20401;-86
2023/08/27 06:42:55;;;;;;;15.77;11.43;;;14.10;99.90;;;;;;5071950;28;20052;-86
2023/08/27 06:45:22;;;;;;;14.05;11.70;;;14.10;99.90;;;;;;5074171;28;20046;-85
2023/08/27 06:47:47;;;;;;;16.55;11.30;;;14.10;99.90;;;;;;5041366;28;20137;-86
2023/08/27 06:50:13;;;;;;;15.82;10.30;;;14.10;99.90;;;;;;5017386;28;20128;-85
2023/08/27 06:52:39;;;;;;;11.35;9.02;;;14.10;99.90;;;;;;5017147;28;20041;-85
2023/08/27 06:55:05;;;;;;;11.15;8.50;;;14.00;99.90;;;;;;5050734;28;20382;-85
2023/08/27 06:57:30;;;;;;;12.88;8.80;;;14.00;99.90;;;;;;5034878;28;20037;-85
2023/08/27 06:59:56;;;;;;;9.75;7.85;;;14.00;99.90;;;;;;5020444;28;20052;-84
2023/08/27 07:02:22;;;;;;;10.82;7.90;;;14.00;99.90;;;;;;5053647;28;20048;-84
2023/08/27 07:04:48;;;;;;;9.93;7.55;;;14.00;99.90;;;;;;5053726;28;20041;-84
2023/08/27 07:07:14;;;;;;;10.93;8.75;;;14.00;99.90;;;;;;5048234;28;20036;-84
2023/08/27 07:09:39;;;;;;;7.97;7.00;;;14.00;99.90;;;;;;5073516;28;20177;-84
2023/08/27 07:12:05;;;;;;;8.75;6.85;;;14.00;99.90;;;;;;5072989;28;20488;-84
2023/08/27 07:14:31;;;;;;;8.30;6.80;;;13.90;99.90;;;;;;5022858;28;20040;-83
2023/08/27 07:16:57;;;;;;;7.80;6.68;;;14.00;99.90;;;;;;5036704;28;20048;-85
2023/08/27 07:19:23;;;;;;;8.77;6.93;;;14.00;99.90;;;;;;5036245;28;20462;-85
2023/08/27 07:21:48;;;;;;;6.75;6.05;;;14.00;99.90;;;;;;5035676;28;20076;-83
2023/08/27 07:24:14;;;;;;;10.45;7.05;;;14.00;99.90;;;;;;5035472;28;20033;-83
2023/08/27 07:26:40;;;;;;;7.32;6.63;;;14.00;99.90;;;;;;5052592;28;20040;-85
2023/08/27 07:29:06;;;;;;;7.35;6.28;;;14.00;99.90;;;;;;5034626;28;20128;-83
2023/08/27 07:31:32;;;;;;;9.80;6.90;;;14.00;99.90;;;;;;5051747;28;20124;-84
2023/08/27 07:33:57;;;;;;;8.90;7.00;;;14.00;99.90;;;;;;5018565;28;20043;-84
2023/08/27 07:36:23;;;;;;;6.45;5.75;;;14.00;99.90;;;;;;5043197;28;20037;-84
2023/08/27 07:38:49;;;;;;;7.75;6.07;;;14.10;99.90;;;;;;5034638;28;20068;-84
2023/08/27 07:41:15;;;;;;;7.15;6.20;;;14.10;99.90;;;;;;5042328;28;20064;-84
2023/08/27 07:43:41;;;;;;;8.02;6.95;;;14.10;99.90;;;;;;5048327;28;20063;-84
2023/08/27 07:46:07;;;;;;;8.23;6.15;;;14.20;99.90;;;;;;5040375;28;20041;-84
2023/08/27 07:48:33;;;;;;;8.95;6.05;;;14.20;99.90;;;;;;5034276;28;20055;-85
2023/08/27 07:50:58;;;;;;;11.02;8.15;;;14.30;99.90;;;;;;5051627;28;20076;-84
2023/08/27 07:53:24;;;;;;;10.48;7.00;;;14.40;99.90;;;;;;5051738;28;20040;-83
2023/08/27 07:55:50;;;;;;;9.48;6.43;;;14.40;99.90;;;;;;5066182;28;20048;-84
2023/08/27 07:58:16;;;;;;;7.00;5.20;;;14.50;99.90;;;;;;5050940;28;20045;-85
2023/08/27 08:00:42;;;;;;;8.35;6.10;;;14.60;99.90;;;;;;5053389;28;20044;-85
2023/08/27 08:03:08;;;;;;;7.22;5.72;;;14.80;99.90;;;;;;5038874;28;20443;-83
2023/08/27 08:05:34;;;;;;;7.93;5.85;;;15.00;99.90;;;;;;5055066;28;20460;-85
2023/08/27 08:08:00;;;;;;;6.97;4.80;;;15.20;99.90;;;;;;5046987;28;20126;-84
2023/08/27 08:10:26;;;;;;;8.15;5.40;;;15.20;99.90;;;;;;5034229;28;20048;-84
2023/08/27 08:12:52;;;;;;;6.20;5.07;;;15.30;99.90;;;;;;5052130;28;20745;-84
2023/08/27 08:15:18;;;;;;;6.03;4.35;;;15.40;99.90;;;;;;5056369;28;20040;-84
2023/08/27 08:17:44;;;;;;;5.35;3.95;;;15.50;99.90;;;;;;5044426;28;20488;-84
2023/08/27 08:20:11;;;;;;;6.25;3.70;;;15.60;99.90;;;;;;5054103;28;20041;-84
2023/08/27 08:22:38;;;;;;;4.88;3.40;;;15.70;99.90;;;;;;5053517;28;20071;-85
2023/08/27 08:25:05;;;;;;;4.85;3.30;;;15.80;99.90;;;;;;5071274;28;20032;-85
2023/08/27 08:27:31;;;;;;;3.90;3.60;;;15.90;99.90;;;;;;5037572;28;20055;-83
2023/08/27 08:29:56;;;;;;;6.30;4.03;;;16.10;99.90;;;;;;5028406;28;20044;-84
2023/08/27 08:32:22;;;;;;;5.30;3.50;;;16.20;99.90;;;;;;5052224;28;20080;-83
2023/08/27 08:34:48;;;;;;;3.58;3.15;;;16.30;99.90;;;;;;5050745;28;20091;-83
2023/08/27 08:37:14;;;;;;;3.55;3.08;;;16.40;99.90;;;;;;5052221;28;20041;-84
2023/08/27 08:39:40;;;;;;;5.65;3.65;;;16.40;99.90;;;;;;5044141;28;20055;-83
2023/08/27 08:42:20;;;;;;;4.50;3.40;;;16.40;99.90;;;;;;5062877;28;20098;-84
2023/08/27 08:44:55;;;;;;;5.03;4.30;;;16.40;99.90;;;;;;5050622;28;20045;-85
2023/08/27 08:47:24;;;;;;;4.70;3.70;;;16.50;99.90;;;;;;5050619;28;20546;-83
2023/08/27 08:49:57;;;;;;;6.00;3.78;;;16.60;99.90;;;;;;5034084;28;20378;-84
2023/08/27 08:52:26;;;;;;;4.57;3.60;;;16.80;99.90;;;;;;5050589;28;20047;-84
2023/08/27 08:54:54;;;;;;;4.40;3.72;;;16.90;99.90;;;;;;5050682;28;20037;-84
2023/08/27 08:57:22;;;;;;;4.30;3.60;;;17.00;99.90;;;;;;5061116;28;20121;-86
2023/08/27 08:59:49;;;;;;;5.82;4.05;;;17.10;99.90;;;;;;5053680;28;20047;-85
2023/08/27 09:02:18;;;;;;;4.18;3.78;;;17.20;99.90;;;;;;5071701;28;20075;-83
2023/08/27 09:04:44;;;;;;;4.95;3.72;;;17.20;99.90;;;;;;5041600;28;20453;-85
2023/08/27 09:07:10;;;;;;;3.88;3.53;;;17.20;99.90;;;;;;5048923;28;20102;-83
2023/08/27 09:09:38;;;;;;;4.30;3.88;;;17.20;99.90;;;;;;5049862;28;20060;-84
2023/08/27 09:12:07;;;;;;;4.70;3.67;;;17.20;99.90;;;;;;5050294;28;20056;-84
2023/08/27 09:14:34;;;;;;;6.03;3.75;;;17.30;99.90;;;;;;5033525;28;20047;-84
2023/08/27 09:17:00;;;;;;;4.35;3.92;;;17.40;99.90;;;;;;5033714;28;20393;-84
2023/08/27 09:19:26;;;;;;;4.57;3.97;;;17.50;99.90;;;;;;5057422;28;20037;-86
2023/08/27 09:21:52;;;;;;;4.30;3.72;;;17.60;99.90;;;;;;5060368;28;20076;-84
2023/08/27 09:24:17;;;;;;;4.90;3.95;;;17.60;99.90;;;;;;5040403;28;20429;-84
2023/08/27 09:26:43;;;;;;;4.43;3.83;;;17.70;99.90;;;;;;5049910;28;20132;-85
2023/08/27 09:29:09;;;;;;;4.03;3.33;;;17.80;99.90;;;;;;5059750;28;20515;-83
2023/08/27 09:31:45;;;;;;;4.47;3.38;;;18.00;99.90;;;;;;5052668;28;20469;-85
2023/08/27 09:34:13;;;;;;;4.90;3.70;;;18.20;99.90;;;;;;5052099;28;20048;-87
2023/08/27 09:36:39;;;;;;;5.22;3.38;;;18.20;99.90;;;;;;5037680;28;20032;-86
2023/08/27 09:39:11;;;;;;;5.07;3.63;;;18.20;99.90;;;;;;5053906;28;20392;-85
2023/08/27 09:41:42;;;;;;;3.95;3.50;;;18.20;99.90;;;;;;5037400;28;20053;-85
2023/08/27 09:44:08;;;;;;;5.72;4.03;;;18.20;99.90;;;;;;5041153;28;20044;-85
2023/08/27 09:46:36;;;;;;;4.63;3.72;;;18.30;99.90;;;;;;5063292;28;20037;-85
2023/08/27 09:49:04;;;;;;;4.47;4.07;;;18.30;99.90;;;;;;5054087;28;20045;-84
2023/08/27 09:51:35;;;;;;;4.07;3.65;;;18.40;99.90;;;;;;5043773;28;20083;-86
2023/08/27 09:54:13;;;;;;;5.43;4.45;;;18.60;99.90;;;;;;5053629;28;20044;-87
2023/08/27 09:56:38;;;;;;;5.05;3.90;;;18.60;99.90;;;;;;5053771;28;20090;-84
2023/08/27 09:59:05;;;;;;;6.18;4.28;;;18.80;99.90;;;;;;5040604;28;20552;-85
2023/08/27 10:01:34;;;;;;;7.10;4.35;;;18.90;99.90;;;;;;5053581;28;20053;-84
2023/08/27 10:04:10;;;;;;;5.63;4.20;;;18.90;99.90;;;;;;5053268;28;20052;-85
2023/08/27 10:06:37;;;;;;;5.15;4.65;;;19.00;99.90;;;;;;5053557;28;20055;-85
2023/08/27 10:09:03;;;;;;;5.53;3.50;;;19.10;99.90;;;;;;5037372;28;20400;-84
2023/08/27 10:11:31;;;;;;;4.95;3.90;;;19.20;99.90;;;;;;5036944;28;20396;-85
2023/08/27 10:13:58;;;;;;;7.10;4.05;;;19.20;99.90;;;;;;5037178;28;20072;-84
2023/08/27 10:16:24;;;;;;;4.82;3.75;;;19.00;99.90;;;;;;5054404;28;20041;-84
2023/08/27 10:18:51;;;;;;;4.47;3.53;;;18.80;99.90;;;;;;5044016;28;20049;-84
2023/08/27 10:21:18;;;;;;;4.00;3.50;;;18.60;99.90;;;;;;5041884;28;20246;-86
2023/08/27 10:23:44;;;;;;;5.38;3.30;;;18.50;99.90;;;;;;5045906;28;20048;-85
2023/08/27 10:26:11;;;;;;;3.33;3.03;;;18.50;99.90;;;;;;5056521;28;20387;-85
2023/08/27 10:28:38;;;;;;;3.80;3.30;;;18.50;99.90;;;;;;5044668;28;20497;-86
2023/08/27 10:31:05;;;;;;;4.38;3.42;;;18.70;99.90;;;;;;5036329;28;20094;-84
2023/08/27 10:33:31;;;;;;;4.65;3.42;;;18.90;99.90;;;;;;5036827;28;20041;-84
2023/08/27 10:36:05;;;;;;;4.13;3.42;;;19.10;99.90;;;;;;5036888;28;20144;-85
2023/08/27 10:38:35;;;;;;;5.68;3.20;;;19.30;99.90;;;;;;5060239;28;20049;-85
2023/08/27 10:41:02;;;;;;;4.85;3.20;;;19.30;99.90;;;;;;5062432;28;20033;-85
2023/08/27 10:43:35;;;;;;;4.55;3.20;;;19.30;99.90;;;;;;5052703;28;20501;-85
2023/08/27 10:46:16;;;;;;;3.28;2.90;;;19.20;99.90;;;;;;5051687;28;20817;-85
2023/08/27 10:48:49;;;;;;;3.40;3.10;;;19.30;99.90;;;;;;5047458;28;20111;-86
2023/08/27 10:51:17;;;;;;;3.33;2.80;;;19.40;99.90;;;;;;5054085;28;20045;-85
2023/08/27 10:53:49;;;;;;;2.85;2.53;;;19.50;99.90;;;;;;5035844;28;20041;-84
2023/08/27 10:56:34;;;;;;;3.45;2.67;;;19.70;99.90;;;;;;5052877;28;20053;-87
2023/08/27 10:59:03;;;;;;;3.67;2.30;;;19.90;99.90;;;;;;5052406;28;20053;-85
2023/08/27 11:01:35;;;;;;;5.38;3.15;;;19.90;99.90;;;;;;5053805;28;20115;-86
2023/08/27 11:04:03;;;;;;;2.60;2.40;;;20.00;99.90;;;;;;5056730;28;20037;-84
2023/08/27 11:06:45;;;;;;;2.67;2.47;;;20.00;99.90;;;;;;5043144;28;20045;-85
2023/08/27 11:09:20;;;;;;;5.25;2.92;;;19.90;99.90;;;;;;5041725;28;20116;-84
2023/08/27 11:11:50;;;;;;;5.13;3.10;;;19.70;99.90;;;;;;5062896;28;20094;-85
2023/08/27 11:14:16;;;;;;;3.55;3.22;;;19.40;99.90;;;;;;5050996;28;20106;-86
2023/08/27 11:17:03;;;;;;;4.63;4.07;;;19.30;99.90;;;;;;5015590;28;20049;-86
2023/08/27 11:19:37;;;;;;;4.63;3.50;;;19.10;99.90;;;;;;5055462;28;20442;-87
2023/08/27 11:22:08;;;;;;;3.90;3.60;;;19.00;99.90;;;;;;5036820;28;20060;-88
2023/08/27 11:24:35;;;;;;;;;;;18.80;99.90;;;;;;5035560;28;20037;-85
2023/08/27 11:27:02;;;;;;;4.55;3.70;;;18.70;99.90;;;;;;5045995;28;19931;-88
2023/08/27 11:29:28;;;;;;;5.72;3.88;;;18.60;99.90;;;;;;5054060;28;20085;-85
2023/08/27 11:31:56;;;;;;;2.75;2.55;;;18.50;99.90;;;;;;5063215;28;20112;-86
2023/08/27 11:34:22;;;;;;;2.58;2.28;;;18.30;99.90;;;;;;5034732;28;20049;-86
2023/08/27 11:36:48;;;;;;;3.13;2.05;;;18.10;99.90;;;;;;5020261;28;20176;-88
2023/08/27 11:39:15;;;;;;;4.13;2.38;;;17.80;99.90;;;;;;5054542;28;20151;-88
2023/08/27 11:41:45;;;;;;;3.03;2.15;;;17.70;99.90;;;;;;5063803;28;20049;-85
2023/08/27 11:44:11;;;;;;;3.13;2.28;;;17.60;99.90;;;;;;5052853;28;20080;-85
2023/08/27 11:46:39;;;;;;;2.47;2.17;;;17.50;99.90;;;;;;5051491;28;20076;-86
2023/08/27 11:49:05;;;;;;;4.05;2.53;;;17.50;99.90;;;;;;5035091;28;20048;-87
2023/08/27 11:51:33;;;;;;;2.55;2.35;;;17.40;99.90;;;;;;5034888;28;20562;-88
2023/08/27 11:54:00;;;;;;;3.45;2.50;;;17.40;99.90;;;;;;5034682;28;20048;-88
2023/08/27 11:56:28;;;;;;;2.70;2.40;;;17.40;99.90;;;;;;5018583;28;20053;-87
2023/08/27 11:58:55;;;;;;;5.60;2.70;;;17.40;99.90;;;;;;5051985;28;20438;-88
2023/08/27 12:01:21;;;;;;;4.70;3.28;;;17.50;99.90;;;;;;5034970;28;20043;-86
2023/08/27 12:03:52;;;;;;;4.18;3.60;;;17.40;99.90;;;;;;5039018;28;20080;-85
2023/08/27 12:06:28;;;;;;;7.18;4.13;;;17.40;99.90;;;;;;5061004;28;20518;-87
2023/08/27 12:08:55;;;;;;;7.03;4.65;;;17.30;99.90;;;;;;5034358;28;20033;-88
2023/08/27 12:11:27;;;;;;;7.50;5.35;;;17.30;99.90;;;;;;5051377;28;20051;-87
2023/08/27 12:14:00;;;;;;;7.47;3.95;;;17.20;99.90;;;;;;5051169;28;20041;-83
2023/08/27 12:16:31;;;;;;;8.40;5.45;;;16.80;99.90;;;;;;5052455;28;20177;-85
2023/08/27 12:19:08;;;;;;;10.43;4.68;;;16.20;99.90;;;;;;5031334;28;20124;-84
2023/08/27 12:21:51;;;;;;;10.50;4.25;;;15.80;99.90;;;;;;5046934;28;20094;-84
2023/08/27 12:24:32;;;;;;;22.38;4.70;;;15.40;99.90;;;;;;5060782;28;20107;-84
2023/08/27 12:27:02;;;;;;;5.45;3.50;;;15.20;99.90;;;;;;5034609;28;20055;-84
2023/08/27 12:29:31;;;;;;;5.07;3.53;;;15.00;99.90;;;;;;5054090;28;20510;-85
2023/08/27 12:31:59;;;;;;;6.13;4.25;;;14.90;99.90;;;;;;5053029;28;20492;-85
2023/08/27 12:34:54;;;;;;;6.65;4.28;;;14.90;99.90;;;;;;5060781;28;20076;-85
2023/08/27 12:37:21;;;;;;;6.88;4.97;;;15.00;99.90;;;;;;5017616;28;20041;-85
2023/08/27 12:39:47;;;;;;;5.35;4.72;;;15.00;99.90;;;;;;5050324;28;20048;-85
2023/08/27 12:42:17;;;;;;;9.32;6.25;;;15.10;99.90;;;;;;5033916;28;20185;-85